Time;durP1;ratioP1;P1;durP2;ratioP2;P2;SDS_P1;SDS_P2;PMS_P1;PMS_P2;Temp;Humidity;BMP_temperature;BMP_pressure;BME280_temperature;BME280_humidity;BME280_pressure;Samples;Min_cycle;Max_cycle;Signal;HPM_P1;HPM_P2
2022/07/13 00:01:09;;;;;;;;;4.67;4.00;;;;;22.17;47.13;98663.41;4914427;28;102267;-66
2022/07/13 00:03:36;;;;;;;;;3.00;3.00;;;;;22.17;47.25;98663.41;4906876;28;102155;-66
2022/07/13 00:06:04;;;;;;;;;4.00;4.00;;;;;22.17;47.47;98652.41;4909529;28;102324;-66
2022/07/13 00:08:31;;;;;;;;;4.00;4.00;;;;;22.16;47.40;98656.25;4909858;28;104248;-66
2022/07/13 00:10:58;;;;;;;;;6.33;4.33;;;;;22.15;47.13;98654.59;4914878;28;102210;-65
2022/07/13 00:13:25;;;;;;;;;3.67;2.67;;;;;22.17;47.19;98663.41;4914135;28;103683;-66
2022/07/13 00:15:52;;;;;;;;;5.00;4.67;;;;;22.14;47.45;98668.66;4910125;28;103525;-65
2022/07/13 00:18:20;;;;;;;;;3.00;3.00;;;;;22.13;47.50;98662.31;4911526;28;104514;-65
2022/07/13 00:20:47;;;;;;;;;5.00;4.00;;;;;22.12;47.69;98659.81;4913443;28;102591;-65
2022/07/13 00:23:14;;;;;;;;;5.00;5.00;;;;;22.12;47.25;98655.16;4917105;28;102212;-66
2022/07/13 00:25:42;;;;;;;;;3.00;3.00;;;;;22.11;47.31;98670.00;4913443;28;102161;-66
2022/07/13 00:28:09;;;;;;;;;3.00;3.00;;;;;22.10;47.40;98662.03;4906841;28;103136;-66
2022/07/13 00:30:36;;;;;;;;;4.00;3.00;;;;;22.06;47.54;98661.78;4911444;28;102500;-66
2022/07/13 00:33:05;;;;;;;;;3.67;3.67;;;;;22.06;47.60;98658.19;4909325;28;102298;-66
2022/07/13 00:35:32;;;;;;;;;3.00;3.00;;;;;22.07;47.56;98662.56;4912845;28;104016;-66
2022/07/13 00:37:59;;;;;;;;;4.33;3.67;;;;;22.07;47.31;98663.41;4910105;28;104130;-65
2022/07/13 00:40:27;;;;;;;;;4.00;3.67;;;;;22.06;47.66;98656.25;4908577;28;102871;-66
2022/07/13 00:42:54;;;;;;;;;4.00;3.67;;;;;22.04;47.60;98661.19;4907074;28;102284;-66
2022/07/13 00:45:22;;;;;;;;;4.00;4.00;;;;;22.03;47.39;98659.53;4912996;28;102960;-66
2022/07/13 00:47:49;;;;;;;;;4.00;3.00;;;;;22.03;47.35;98654.03;4908189;28;104294;-65
2022/07/13 00:50:16;;;;;;;;;2.67;2.33;;;;;22.00;47.50;98657.34;4909601;28;102181;-65
2022/07/13 00:52:43;;;;;;;;;5.00;4.33;;;;;22.00;48.04;98662.84;4911272;28;102416;-66
2022/07/13 00:55:10;;;;;;;;;4.00;4.00;;;;;21.99;47.49;98663.94;4910153;28;102647;-65
2022/07/13 00:57:38;;;;;;;;;4.67;4.67;;;;;21.98;47.91;98662.28;4909328;28;104398;-66
2022/07/13 01:00:08;;;;;;;;;4.67;4.00;;;;;21.96;47.76;98661.75;4908770;28;102274;-66
2022/07/13 01:02:36;;;;;;;;;3.67;3.00;;;;;21.96;48.01;98653.50;4902166;28;102227;-66
2022/07/13 01:05:04;;;;;;;;;3.67;3.67;;;;;21.95;47.75;98653.75;4901258;28;102166;-65
2022/07/13 01:07:32;;;;;;;;;4.00;3.00;;;;;21.97;47.79;98659.81;4905458;28;104215;-66
2022/07/13 01:10:00;;;;;;;;;4.33;3.00;;;;;21.99;47.52;98654.84;4899618;28;102325;-66
2022/07/13 01:12:29;;;;;;;;;4.00;4.00;;;;;21.99;47.73;98655.69;4905684;28;104097;-66
2022/07/13 01:14:57;;;;;;;;;4.00;4.00;;;;;21.97;47.85;98655.16;4908784;28;102409;-66
2022/07/13 01:17:25;;;;;;;;;4.67;4.67;;;;;21.97;47.61;98657.06;4909243;28;104231;-66
2022/07/13 01:19:52;;;;;;;;;4.00;4.00;;;;;21.96;47.80;98661.75;4920980;28;102017;-65
2022/07/13 01:22:21;;;;;;;;;4.00;4.00;;;;;21.94;47.81;98652.09;4909269;28;102290;-66
2022/07/13 01:24:49;;;;;;;;;4.67;4.00;;;;;21.94;48.00;98652.91;4910149;28;102604;-66
2022/07/13 01:27:17;;;;;;;;;3.00;3.00;;;;;21.94;47.55;98652.09;4903544;28;104205;-65
2022/07/13 01:29:44;;;;;;;;;4.00;3.00;;;;;21.94;47.70;98663.09;4905329;28;102189;-66
2022/07/13 01:32:12;;;;;;;;;3.50;3.50;;;;;21.93;47.85;98645.75;4903641;28;102419;-66
2022/07/13 01:34:39;;;;;;;;;5.00;3.67;;;;;21.92;47.61;98646.84;4911599;28;102710;-66
2022/07/13 01:37:06;;;;;;;;;3.67;3.67;;;;;21.91;48.00;98647.94;4907051;28;104797;-66
2022/07/13 01:39:33;;;;;;;;;3.67;3.33;;;;;21.90;48.05;98648.19;4908193;28;102548;-66
2022/07/13 01:42:01;;;;;;;;;5.00;4.00;;;;;21.90;47.86;98649.03;4903031;28;102209;-66
2022/07/13 01:44:28;;;;;;;;;3.33;3.00;;;;;21.91;47.89;98652.63;4907783;28;106247;-66
2022/07/13 01:46:55;;;;;;;;;5.00;5.00;;;;;21.90;47.90;98645.44;4904164;28;104179;-65
2022/07/13 01:49:22;;;;;;;;;3.67;3.67;;;;;21.89;47.82;98658.38;4905573;28;102233;-66
2022/07/13 01:51:50;;;;;;;;;5.00;4.67;;;;;21.89;47.81;98646.53;4906307;28;102186;-66
2022/07/13 01:54:17;;;;;;;;;3.00;3.00;;;;;21.87;47.70;98648.75;4911293;28;102511;-66
2022/07/13 01:56:44;;;;;;;;;3.00;3.00;;;;;21.86;47.79;98653.44;4909235;28;108835;-66
2022/07/13 01:59:11;;;;;;;;;3.00;2.00;;;;;21.86;47.93;98649.84;4909088;28;102336;-66
2022/07/13 02:01:38;;;;;;;;;3.33;3.33;;;;;21.87;47.77;98651.50;4913062;28;102333;-66
2022/07/13 02:04:05;;;;;;;;;4.00;4.00;;;;;21.86;47.82;98647.94;4906289;28;102573;-66
2022/07/13 02:06:32;;;;;;;;;3.67;3.00;;;;;21.85;47.78;98649.03;4912322;28;104116;-66
2022/07/13 02:08:59;;;;;;;;;4.00;4.00;;;;;21.86;48.25;98650.69;4907422;28;102343;-66
2022/07/13 02:11:27;;;;;;;;;4.67;4.00;;;;;21.84;47.91;98657.56;4908542;28;103976;-65
2022/07/13 02:13:54;;;;;;;;;2.33;2.00;;;;;21.83;47.67;98645.72;4898491;28;102169;-65
2022/07/13 02:16:21;;;;;;;;;3.00;3.00;;;;;21.86;47.84;98650.69;4908696;28;104084;-65
2022/07/13 02:18:48;;;;;;;;;4.00;4.00;;;;;21.86;47.77;98642.41;4911981;28;102153;-65
2022/07/13 02:21:15;;;;;;;;;3.33;3.00;;;;;21.87;48.04;98646.00;4913352;28;102278;-66
2022/07/13 02:23:42;;;;;;;;;2.00;2.00;;;;;21.86;47.75;98645.19;4913159;28;102248;-65
2022/07/13 02:26:09;;;;;;;;;3.67;3.67;;;;;21.85;48.19;98635.25;4909221;28;104083;-66
2022/07/13 02:28:37;;;;;;;;;2.67;2.67;;;;;21.85;47.75;98643.50;4911753;28;102539;-66
2022/07/13 02:31:04;;;;;;;;;4.00;4.00;;;;;21.84;47.88;98641.84;4910905;28;102486;-66
2022/07/13 02:33:31;;;;;;;;;4.00;4.00;;;;;21.83;47.76;98640.22;4912952;28;102443;-66
2022/07/13 02:35:58;;;;;;;;;5.00;5.00;;;;;21.85;48.23;98642.69;4905671;28;104210;-66
2022/07/13 02:38:25;;;;;;;;;4.00;4.00;;;;;21.83;47.73;98644.91;4911063;28;102108;-66
2022/07/13 02:40:52;;;;;;;;;3.00;3.00;;;;;21.81;48.16;98636.91;4909524;28;102148;-65
2022/07/13 02:43:19;;;;;;;;;2.00;2.00;;;;;21.80;48.03;98641.59;4914087;28;102196;-65
2022/07/13 02:45:46;;;;;;;;;4.33;3.33;;;;;21.80;48.16;98638.81;4916954;28;104065;-66
2022/07/13 02:48:14;;;;;;;;;3.33;3.00;;;;;21.80;48.22;98635.25;4911898;28;102523;-66
2022/07/13 02:50:41;;;;;;;;;3.67;3.00;;;;;21.79;47.86;98639.91;4933986;28;102183;-66
2022/07/13 02:53:08;;;;;;;;;2.67;2.67;;;;;21.80;48.04;98646.25;4913911;28;103228;-66
2022/07/13 02:55:35;;;;;;;;;3.00;3.00;;;;;21.78;47.95;98643.78;4912875;28;104096;-66
2022/07/13 02:58:02;;;;;;;;;2.33;2.33;;;;;21.77;48.24;98642.13;4913773;28;102284;-67
2022/07/13 03:00:29;;;;;;;;;4.00;3.00;;;;;21.78;47.90;98642.97;4913958;28;102863;-66
2022/07/13 03:02:56;;;;;;;;;3.00;3.00;;;;;21.77;48.30;98647.63;4914512;28;102213;-66
2022/07/13 03:05:24;;;;;;;;;3.00;3.00;;;;;21.76;48.27;98645.97;4914347;28;104145;-66
2022/07/13 03:07:51;;;;;;;;;2.67;2.67;;;;;21.75;48.09;98649.00;4914070;28;102263;-66
2022/07/13 03:10:18;;;;;;;;;4.00;3.67;;;;;21.74;47.96;98647.38;4914990;28;102277;-66
2022/07/13 03:12:45;;;;;;;;;2.33;2.33;;;;;21.74;48.43;98644.63;4916077;28;102245;-66
2022/07/13 03:15:12;;;;;;;;;4.00;4.00;;;;;21.74;48.16;98647.38;4911527;28;104063;-66
2022/07/13 03:17:41;;;;;;;;;3.33;3.33;;;;;21.74;48.35;98647.38;4911927;28;102180;-66
2022/07/13 03:20:09;;;;;;;;;3.67;3.67;;;;;21.72;48.33;98641.28;4913910;28;102208;-65
2022/07/13 03:22:36;;;;;;;;;3.33;3.33;;;;;21.74;47.94;98647.38;4918844;28;103323;-66
2022/07/13 03:25:04;;;;;;;;;3.00;3.00;;;;;21.74;47.95;98636.34;4912202;28;104115;-66
2022/07/13 03:27:31;;;;;;;;;2.00;2.00;;;;;21.73;48.26;98643.78;4914609;28;102179;-66
2022/07/13 03:29:58;;;;;;;;;3.00;3.00;;;;;21.74;47.85;98647.38;4914271;28;102208;-66
2022/07/13 03:32:25;;;;;;;;;3.00;3.00;;;;;21.74;48.22;98647.38;4912446;28;103623;-65
2022/07/13 03:34:52;;;;;;;;;3.00;3.00;;;;;21.73;48.28;98642.94;4912922;28;104187;-66
2022/07/13 03:37:19;;;;;;;;;3.33;3.33;;;;;21.72;47.92;98639.38;4915648;28;102262;-65
2022/07/13 03:39:46;;;;;;;;;3.00;3.00;;;;;21.73;48.18;98646.53;4914752;28;102277;-66
2022/07/13 03:42:13;;;;;;;;;2.00;2.00;;;;;21.72;48.24;98644.88;4912812;28;102909;-65
2022/07/13 03:44:40;;;;;;;;;3.00;3.00;;;;;21.73;48.30;98646.53;4908716;28;104146;-66
2022/07/13 03:47:07;;;;;;;;;3.00;3.00;;;;;21.73;47.94;98651.22;4913032;28;102164;-66
2022/07/13 03:49:34;;;;;;;;;4.00;3.00;;;;;21.72;47.80;98644.03;4914220;28;102385;-66
2022/07/13 03:52:01;;;;;;;;;2.00;2.00;;;;;21.72;47.83;98644.88;4913545;28;102608;-65
2022/07/13 03:54:31;;;;;;;;;3.00;3.00;;;;;21.72;48.46;98644.88;4915470;28;104109;-66
2022/07/13 03:57:00;;;;;;;;;3.00;3.00;;;;;21.71;47.84;98629.44;4906104;28;102473;-66
2022/07/13 03:59:27;;;;;;;;;4.00;4.00;;;;;21.72;48.33;98646.78;4915003;28;103041;-66
2022/07/13 04:01:54;;;;;;;;;4.00;3.00;;;;;21.73;48.26;98634.69;4914707;28;102136;-66
2022/07/13 04:04:22;;;;;;;;;4.00;3.00;;;;;21.71;48.39;98647.88;4912450;28;104210;-65
2022/07/13 04:06:49;;;;;;;;;3.33;3.00;;;;;21.70;48.09;98641.56;4911393;28;102690;-65
2022/07/13 04:09:16;;;;;;;;;3.00;3.00;;;;;21.72;48.14;98642.13;4915064;28;102240;-65
2022/07/13 04:11:43;;;;;;;;;3.00;3.00;;;;;21.70;48.19;98649.00;4915831;28;102196;-65
2022/07/13 04:14:10;;;;;;;;;3.00;3.00;;;;;21.68;48.42;98643.75;4912642;28;104220;-65
2022/07/13 04:16:37;;;;;;;;;3.00;3.00;;;;;21.68;48.56;98649.28;4912554;28;103231;-65
2022/07/13 04:19:05;;;;;;;;;2.00;2.00;;;;;21.68;48.12;98649.28;4915979;28;102269;-65
2022/07/13 04:21:32;;;;;;;;;2.33;2.33;;;;;;;;4914518;28;103773;-66
2022/07/13 04:23:59;;;;;;;;;3.00;3.00;;;;;;;;4907385;28;104067;-65
2022/07/13 04:26:26;;;;;;;;;1.00;1.00;;;;;21.69;47.87;98655.59;4912448;28;102550;-65
2022/07/13 04:28:53;;;;;;;;;2.33;2.33;;;;;21.69;48.43;98661.94;4912124;28;102846;-65
2022/07/13 04:31:20;;;;;;;;;4.00;3.00;;;;;21.71;47.90;98658.91;4915968;28;102239;-65
2022/07/13 04:33:47;;;;;;;;;2.33;2.33;;;;;21.71;48.19;98669.91;4915072;28;104145;-65
2022/07/13 04:36:14;;;;;;;;;3.00;3.00;;;;;21.72;47.83;98666.06;4911789;28;102070;-66
2022/07/13 04:38:41;;;;;;;;;3.33;3.00;;;;;21.70;47.80;98669.06;4914755;28;103103;-65
2022/07/13 04:41:08;;;;;;;;;2.33;2.00;;;;;21.69;47.81;98659.19;4910221;28;102172;-65
2022/07/13 04:43:35;;;;;;;;;3.00;3.00;;;;;21.71;48.36;98658.91;4928419;28;104037;-65
2022/07/13 04:46:03;;;;;;;;;2.33;2.00;;;;;21.71;47.82;98672.66;4913433;28;102423;-65
2022/07/13 04:48:30;;;;;;;;;2.00;2.00;;;;;21.71;48.02;98664.41;4908659;28;102472;-65
2022/07/13 04:50:57;;;;;;;;;3.00;3.00;;;;;21.71;47.87;98669.91;4909570;28;102557;-65
2022/07/13 04:53:24;;;;;;;;;3.00;3.00;;;;;21.72;48.07;98671.56;4916091;28;104091;-65
2022/07/13 04:55:51;;;;;;;;;3.67;3.67;;;;;21.69;48.12;98664.69;4912091;28;102489;-65
2022/07/13 04:58:18;;;;;;;;;3.00;2.00;;;;;21.70;47.70;98668.28;4914052;28;102145;-65
2022/07/13 05:00:46;;;;;;;;;2.33;2.33;;;;;21.70;47.85;98669.06;4903315;28;102289;-65
2022/07/13 05:03:33;;;;;;;;;4.00;3.67;;;;;21.71;48.06;98669.91;4911173;28;110020;-65
2022/07/13 05:06:00;;;;;;;;;4.00;3.00;;;;;21.73;47.98;98667.72;4914861;28;102184;-65
2022/07/13 05:08:27;;;;;;;;;2.00;2.00;;;;;21.71;47.73;98665.22;4911349;28;102248;-65
2022/07/13 05:10:54;;;;;;;;;2.33;2.33;;;;;21.71;47.85;98669.91;4914751;28;102614;-65
2022/07/13 05:13:21;;;;;;;;;2.33;2.33;;;;;21.70;47.58;98673.78;4914208;28;104059;-65
2022/07/13 05:15:50;;;;;;;;;2.67;2.67;;;;;21.70;47.61;98665.53;4914187;28;102410;-65
2022/07/13 05:18:18;;;;;;;;;2.00;2.00;;;;;21.70;48.07;98662.78;4918294;28;102193;-65
2022/07/13 05:20:45;;;;;;;;;3.00;2.00;;;;;21.71;47.60;98658.91;4917250;28;102108;-65
2022/07/13 05:23:12;;;;;;;;;3.33;2.00;;;;;21.72;47.47;98666.06;4912542;28;104252;-65
2022/07/13 05:25:39;;;;;;;;;3.00;3.00;;;;;21.72;48.00;98660.56;4915987;28;105059;-66
2022/07/13 05:28:06;;;;;;;;;2.00;2.00;;;;;21.73;47.96;98665.81;4915038;28;102211;-65
2022/07/13 05:30:33;;;;;;;;;3.00;2.00;;;;;21.71;47.51;98667.16;4913582;28;102203;-65
2022/07/13 05:33:00;;;;;;;;;2.67;2.33;;;;;21.74;47.96;98659.19;4906946;28;104057;-65
2022/07/13 05:35:27;;;;;;;;;2.00;2.00;;;;;21.77;47.50;98663.31;4941477;28;102428;-65
2022/07/13 05:37:54;;;;;;;;;2.00;2.00;;;;;21.79;47.96;98666.66;4911130;28;102392;-65
2022/07/13 05:40:21;;;;;;;;;2.00;2.00;;;;;21.82;47.61;98671.59;4934749;28;102534;-65
2022/07/13 05:42:49;;;;;;;;;3.00;3.00;;;;;21.85;47.37;98660.03;4909359;28;103596;-65
2022/07/13 05:45:16;;;;;;;;;3.67;2.00;;;;;21.86;47.40;98661.69;4914122;28;102239;-65
2022/07/13 05:47:46;;;;;;;;;2.33;2.33;;;;;21.88;47.51;98659.50;4910635;28;102468;-65
2022/07/13 05:50:14;;;;;;;;;3.00;3.00;;;;;21.89;47.26;98666.66;4908448;28;102286;-65
2022/07/13 05:52:41;;;;;;;;;2.00;2.00;;;;;21.90;47.67;98661.97;4932790;28;103991;-65
2022/07/13 05:55:09;;;;;;;;;2.00;2.00;;;;;21.90;47.33;98670.22;4912197;28;102096;-65
2022/07/13 05:57:37;;;;;;;;;2.00;2.00;;;;;21.89;47.58;98666.66;4911779;28;102375;-66
2022/07/13 06:00:11;;;;;;;;;2.00;2.00;;;;;21.89;47.58;98666.66;4904383;28;102467;-65
2022/07/13 06:02:39;;;;;;;;;2.00;2.00;;;;;21.90;47.69;98673.81;4909062;28;104236;-65
2022/07/13 06:05:06;;;;;;;;;1.67;1.67;;;;;21.89;47.57;98665.81;4908929;28;102279;-65
2022/07/13 06:07:34;;;;;;;;;3.00;2.00;;;;;21.88;47.21;98665.00;4911793;28;102410;-66
2022/07/13 06:10:01;;;;;;;;;1.33;1.00;;;;;21.88;47.40;98667.78;4909591;28;102499;-65
2022/07/13 06:12:28;;;;;;;;;2.00;2.00;;;;;21.89;47.46;98661.13;4906306;28;104046;-66
2022/07/13 06:14:55;;;;;;;;;1.00;1.00;;;;;21.89;47.56;98669.41;4907843;28;102345;-65
2022/07/13 06:17:22;;;;;;;;;2.00;1.00;;;;;21.89;47.67;98657.56;4914439;28;102177;-65
2022/07/13 06:19:49;;;;;;;;;2.00;1.00;;;;;21.90;47.15;98667.47;4917362;28;104775;-65
2022/07/13 06:22:17;;;;;;;;;2.00;2.00;;;;;21.90;47.19;98661.97;4911208;28;109496;-66
2022/07/13 06:24:44;;;;;;;;;2.00;2.00;;;;;21.89;47.71;98655.63;4934230;28;102107;-65
2022/07/13 06:27:11;;;;;;;;;2.00;2.00;;;;;21.89;47.44;98666.66;4914049;28;101823;-65
2022/07/13 06:29:38;;;;;;;;;2.00;1.00;;;;;21.89;47.28;98672.16;4916930;28;102273;-65
2022/07/13 06:32:05;;;;;;;;;1.00;1.00;;;;;21.90;47.22;98671.06;4911960;28;104076;-65
2022/07/13 06:34:32;;;;;;;;;2.33;1.67;;;;;21.89;47.51;98661.13;4909375;28;102586;-65
2022/07/13 06:36:59;;;;;;;;;2.33;1.00;;;;;21.90;47.32;98671.06;4912008;28;102242;-65
2022/07/13 06:39:46;;;;;;;;;1.67;1.67;;;;;21.89;47.14;98666.66;4912077;28;103133;-65
2022/07/13 06:42:13;;;;;;;;;1.00;1.00;;;;;21.88;47.34;98665.00;4906745;28;104072;-65
2022/07/13 06:44:41;;;;;;;;;2.00;1.00;;;;;21.90;47.58;98659.22;4907323;28;104770;-65
2022/07/13 06:47:08;;;;;;;;;1.00;1.00;;;;;21.90;47.53;98667.47;4904776;28;102181;-65
2022/07/13 06:49:35;;;;;;;;;1.00;1.00;;;;;21.91;47.47;98671.88;4914428;28;102295;-65
2022/07/13 06:52:02;;;;;;;;;1.00;1.00;;;;;21.90;47.18;98662.81;4916974;28;104082;-65
2022/07/13 06:54:32;;;;;;;;;1.00;1.00;;;;;21.91;47.22;98664.47;4915058;28;102432;-65
2022/07/13 06:57:00;;;;;;;;;2.00;2.00;;;;;21.90;47.39;98668.31;4915462;28;102176;-65
2022/07/13 06:59:27;;;;;;;;;2.00;2.00;;;;;21.91;47.56;98675.47;4912931;28;102505;-65
2022/07/13 07:01:54;;;;;;;;;2.00;2.00;;;;;21.93;47.54;98678.00;4914882;28;104083;-64
2022/07/13 07:04:22;;;;;;;;;1.00;1.00;;;;;21.93;47.03;98676.03;4916966;28;102679;-63
2022/07/13 07:06:49;;;;;;;;;1.33;1.33;;;;;21.93;47.18;98672.50;4917314;28;102541;-65
2022/07/13 07:09:16;;;;;;;;;1.00;1.00;;;;;21.92;47.63;98659.78;4912171;28;102470;-65
2022/07/13 07:11:44;;;;;;;;;1.00;1.00;;;;;21.93;47.24;98662.28;4908577;28;104369;-65
2022/07/13 07:14:11;;;;;;;;;1.00;1.00;;;;;21.92;47.23;98666.13;4914413;28;102201;-65
2022/07/13 07:16:38;;;;;;;;;2.00;2.00;;;;;21.93;47.21;98667.78;4911573;28;102449;-65
2022/07/13 07:19:05;;;;;;;;;1.00;1.00;;;;;21.91;47.50;98675.47;4910862;28;102324;-65
2022/07/13 07:21:51;;;;;;;;;1.67;1.67;;;;;21.93;47.09;98672.50;4913964;28;109235;-65
2022/07/13 07:24:18;;;;;;;;;2.00;2.00;;;;;21.94;47.26;98669.44;4913391;28;102203;-65
2022/07/13 07:26:47;;;;;;;;;2.00;2.00;;;;;21.93;47.31;98673.28;4919197;28;103094;-65
2022/07/13 07:29:14;;;;;;;;;1.33;1.33;;;;;21.93;47.28;98662.28;4913745;28;102470;-65
2022/07/13 07:31:42;;;;;;;;;1.00;1.00;;;;;21.92;47.08;98682.63;4907019;28;103905;-65
2022/07/13 07:34:09;;;;;;;;;2.00;1.33;;;;;21.92;47.69;98671.63;4914129;28;102057;-66
2022/07/13 07:36:36;;;;;;;;;0.67;0.67;;;;;21.92;47.02;98674.38;4914921;28;102416;-66
2022/07/13 07:39:03;;;;;;;;;1.00;1.00;;;;;21.93;47.52;98667.78;4910596;28;102512;-65
2022/07/13 07:41:30;;;;;;;;;1.67;1.67;;;;;21.92;47.35;98666.13;4915564;28;104118;-65
2022/07/13 07:43:59;;;;;;;;;1.00;1.00;;;;;21.92;47.26;98660.63;4904743;28;102572;-64
2022/07/13 07:46:26;;;;;;;;;1.00;1.00;;;;;21.92;47.18;98666.13;4911350;28;102315;-65
2022/07/13 07:48:53;;;;;;;;;1.00;1.00;;;;;21.93;47.61;98673.28;4918060;28;102460;-64
2022/07/13 07:51:20;;;;;;;;;1.00;1.00;;;;;21.93;47.08;98664.22;4918738;28;104065;-65
2022/07/13 07:53:47;;;;;;;;;1.00;1.00;;;;;21.93;47.26;98673.28;4913879;28;102254;-65
2022/07/13 07:56:14;;;;;;;;;1.67;1.67;;;;;21.95;47.21;98670.28;4904339;28;102115;-66
2022/07/13 07:58:41;;;;;;;;;1.00;1.00;;;;;21.95;47.44;98671.09;4913125;28;102765;-65
2022/07/13 08:01:08;;;;;;;;;1.00;1.00;;;;;21.94;47.58;98669.44;4917489;28;104479;-65
2022/07/13 08:03:35;;;;;;;;;1.00;1.00;;;;;21.94;47.18;98666.69;4916730;28;102205;-65
2022/07/13 08:06:03;;;;;;;;;1.67;1.67;;;;;21.95;47.49;98662.84;4914873;28;102549;-65
2022/07/13 08:08:30;;;;;;;;;0.33;0.33;;;;;21.97;47.54;98668.09;4912579;28;102589;-65
2022/07/13 08:10:57;;;;;;;;;1.33;1.33;;;;;21.98;47.21;98667.78;4916638;28;104051;-65
2022/07/13 08:13:24;;;;;;;;;1.00;1.00;;;;;21.97;47.41;98662.59;4914600;28;102149;-65
2022/07/13 08:15:51;;;;;;;;;1.00;1.00;;;;;21.99;47.17;98660.38;4919981;28;102453;-65
2022/07/13 08:18:18;;;;;;;;;1.67;1.00;;;;;21.98;47.10;98659.53;4912619;28;102397;-65
2022/07/13 08:21:06;;;;;;;;;1.33;1.00;;;;;21.98;47.26;98654.03;4913641;28;109915;-65
2022/07/13 08:23:52;;;;;;;;;1.33;1.00;;;;;21.99;47.14;98655.69;4918961;28;102505;-65
2022/07/13 08:26:20;;;;;;;;;0.33;0.33;;;;;21.98;47.01;98654.03;4914318;28;102373;-65
2022/07/13 08:28:47;;;;;;;;;0.00;0.00;;;;;21.99;46.97;98650.19;4918320;28;102354;-65
2022/07/13 08:31:14;;;;;;;;;1.00;1.00;;;;;22.00;47.09;98651.84;4919375;28;104081;-65
2022/07/13 08:39:13;;;;;;;;;1.00;1.00;;;;;22.01;47.02;98652.66;4912282;28;105855;-65
2022/07/13 08:41:45;;;;;;;;;1.67;1.67;;;;;22.00;47.36;98654.59;4917686;28;104165;-65
2022/07/13 08:44:12;;;;;;;;;1.00;1.00;;;;;22.01;47.24;98660.94;4917054;28;102415;-65
2022/07/13 08:46:39;;;;;;;;;1.00;1.00;;;;;22.01;47.08;98655.41;4917917;28;102484;-65
2022/07/13 08:49:06;;;;;;;;;1.00;1.00;;;;;22.01;47.41;98667.28;4917732;28;102620;-65
2022/07/13 08:51:34;;;;;;;;;1.00;1.00;;;;;22.02;47.32;98668.91;4910864;28;104201;-65
2022/07/13 08:54:03;;;;;;;;;1.00;1.00;;;;;22.02;46.94;98671.66;4911103;28;102989;-65
2022/07/13 08:56:32;;;;;;;;;2.00;1.00;;;;;22.02;47.17;98668.91;4918820;28;102238;-65
2022/07/13 08:58:59;;;;;;;;;1.00;1.00;;;;;22.04;47.07;98658.44;4917896;28;102518;-64
2022/07/13 09:01:27;;;;;;;;;0.67;0.67;;;;;22.03;47.17;98661.47;4917888;28;104307;-65
2022/07/13 09:03:54;;;;;;;;;2.67;2.67;;;;;22.04;47.39;98657.63;4918716;28;102137;-65
2022/07/13 09:06:39;;;;;;;;;1.00;1.00;;;;;22.06;47.06;98659.00;4919297;28;103808;-65
2022/07/13 09:09:07;;;;;;;;;0.00;0.00;;;;;22.06;47.40;98650.75;4914641;28;102272;-64
2022/07/13 09:11:34;;;;;;;;;1.00;1.00;;;;;22.06;47.54;98653.50;4912004;28;104056;-65
2022/07/13 09:14:01;;;;;;;;;1.00;1.00;;;;;22.06;47.45;98653.50;4909838;28;102511;-65
2022/07/13 09:16:28;;;;;;;;;1.00;1.00;;;;;22.06;47.24;98648.00;4917710;28;104211;-65
2022/07/13 09:18:57;;;;;;;;;1.67;1.00;;;;;22.08;47.23;98662.31;4917699;28;102208;-65
2022/07/13 09:21:30;;;;;;;;;1.00;1.00;;;;;22.08;47.31;98654.03;4915946;28;104188;-65
2022/07/13 09:23:59;;;;;;;;;1.00;1.00;;;;;22.08;47.27;98673.31;4915057;28;102626;-65
2022/07/13 09:26:40;;;;;;;;;0.67;0.67;;;;;22.09;47.02;98669.47;4913341;28;103240;-65
2022/07/13 09:29:07;;;;;;;;;0.67;0.67;;;;;22.09;46.96;98666.72;4912846;28;102231;-66
2022/07/13 09:31:53;;;;;;;;;1.00;1.00;;;;;22.10;47.01;98662.03;4915528;28;104060;-65
2022/07/13 09:34:21;;;;;;;;;2.00;2.00;;;;;22.09;47.06;98661.22;4911447;28;102101;-65
2022/07/13 09:37:08;;;;;;;;;1.00;1.00;;;;;22.10;47.15;98656.53;4909142;28;105403;-65
2022/07/13 09:39:35;;;;;;;;;1.00;1.00;;;;;22.10;47.30;98649.09;4916525;28;102588;-65
2022/07/13 09:42:02;;;;;;;;;1.33;1.33;;;;;22.11;47.12;98653.47;4916100;28;103652;-65
2022/07/13 09:47:19;;;;;;;;;1.00;1.00;;;;;22.11;47.26;98647.97;4912622;28;106628;-65
2022/07/13 09:49:46;;;;;;;;;1.00;1.00;;;;;22.11;46.92;98647.97;4915190;28;102226;-65
2022/07/13 09:52:18;;;;;;;;;1.00;1.00;;;;;22.11;47.03;98641.66;4920462;28;104082;-65
2022/07/13 09:54:51;;;;;;;;;0.00;0.00;;;;;22.11;46.84;98653.47;4914936;28;102408;-65
2022/07/13 09:57:19;;;;;;;;;0.00;0.00;;;;;22.11;46.98;98650.72;4916535;28;102306;-65
2022/07/13 09:59:46;;;;;;;;;0.00;0.00;;;;;22.12;47.03;98644.13;4910021;28;102169;-66
2022/07/13 10:02:13;;;;;;;;;0.00;0.00;;;;;22.13;47.15;98656.81;4910317;28;104222;-65
2022/07/13 10:04:41;;;;;;;;;1.33;1.00;;;;;22.12;47.38;98655.16;4914816;28;102072;-65
2022/07/13 10:07:18;;;;;;;;;0.00;0.00;;;;;22.14;47.37;98646.63;4911417;28;102548;-65
2022/07/13 10:09:45;;;;;;;;;1.00;1.00;;;;;22.13;47.19;98651.28;4916739;28;102406;-65
2022/07/13 10:12:12;;;;;;;;;0.00;0.00;;;;;22.14;47.04;98650.19;4906227;28;104690;-65
2022/07/13 10:14:39;;;;;;;;;0.00;0.00;;;;;22.15;47.28;98659.28;4913408;28;102151;-65
2022/07/13 10:17:09;;;;;;;;;1.00;1.00;;;;;22.15;47.29;98656.53;4916257;28;102250;-65
2022/07/13 10:19:44;;;;;;;;;0.00;0.00;;;;;22.16;47.46;98656.25;4898949;28;102383;-65
2022/07/13 10:22:18;;;;;;;;;1.00;1.00;;;;;22.16;46.82;98664.50;4915429;28;103913;-65
2022/07/13 10:24:57;;;;;;;;;0.00;0.00;;;;;22.18;47.10;98656.81;4915510;28;102250;-65
2022/07/13 10:27:26;;;;;;;;;0.00;0.00;;;;;22.19;47.21;98655.72;4911286;28;102312;-64
2022/07/13 10:29:54;;;;;;;;;1.00;1.00;;;;;22.20;46.81;98654.59;4938423;28;102076;-65
2022/07/13 10:32:25;;;;;;;;;0.00;0.00;;;;;22.20;46.93;98651.84;4915696;28;108882;-65
2022/07/13 10:35:04;;;;;;;;;0.67;0.67;;;;;22.22;47.12;98649.66;4916645;28;102191;-65
2022/07/13 10:37:56;;;;;;;;;1.00;1.00;;;;;22.22;46.93;98649.66;4916855;28;102634;-65
2022/07/13 10:40:31;;;;;;;;;0.00;0.00;;;;;22.22;47.02;98660.66;4914658;28;102433;-64
2022/07/13 10:43:00;;;;;;;;;0.00;0.00;;;;;22.21;46.98;98653.50;4896111;28;105167;-65
2022/07/13 10:45:39;;;;;;;;;0.00;0.00;;;;;22.22;47.15;98655.16;4913525;28;102125;-65
2022/07/13 10:48:32;;;;;;;;;1.00;1.00;;;;;22.23;47.46;98650.47;4916884;28;103119;-65
2022/07/13 10:51:00;;;;;;;;;1.00;1.00;;;;;22.23;46.88;98656.00;4925021;28;102501;-65
2022/07/13 10:53:40;;;;;;;;;1.00;1.00;;;;;22.23;47.27;98665.09;4915146;28;104370;-64
2022/07/13 10:56:17;;;;;;;;;0.00;0.00;;;;;22.24;47.29;98661.19;4913233;28;102434;-65
2022/07/13 10:58:45;;;;;;;;;0.00;0.00;;;;;22.24;46.73;98663.97;4911715;28;102417;-65
2022/07/13 11:01:30;;;;;;;;;0.00;0.00;;;;;22.25;46.89;98665.63;4912330;28;102286;-65
2022/07/13 11:03:57;;;;;;;;;0.00;0.00;;;;;22.25;47.11;98659.28;4913069;28;108910;-65
2022/07/13 11:06:25;;;;;;;;;0.00;0.00;;;;;22.25;46.87;98662.03;4911201;28;102162;-65
2022/07/13 11:09:24;;;;;;;;;0.33;0.33;;;;;22.25;47.19;98665.63;4921982;28;102448;-66
2022/07/13 11:11:53;;;;;;;;;1.00;1.00;;;;;22.27;47.05;98661.75;4882979;28;102312;-65
2022/07/13 11:14:46;;;;;;;;;1.00;1.00;;;;;22.28;47.28;98652.41;4915399;28;109233;-65
2022/07/13 11:17:16;;;;;;;;;1.00;1.00;;;;;22.28;46.92;98646.91;4899889;28;109487;-65
2022/07/13 11:20:00;;;;;;;;;0.33;0.33;;;;;22.28;47.18;98642.22;4911786;28;102603;-65
2022/07/13 11:25:13;;;;;;;;;1.00;0.33;;;;;22.30;47.32;98644.69;4918592;28;102301;-65
2022/07/13 11:25:55;;;;;;;;;0.00;0.00;;;;;22.31;46.96;98647.16;4917542;28;108993;-65
2022/07/13 11:28:30;;;;;;;;;0.00;0.00;;;;;22.32;46.92;98645.25;4883500;28;102236;-65
2022/07/13 11:30:57;;;;;;;;;0.00;0.00;;;;;22.32;46.88;98639.72;4913808;28;102091;-65
2022/07/13 11:33:24;;;;;;;;;0.00;0.00;;;;;22.34;47.08;98634.75;4920429;28;104315;-64
2022/07/13 11:35:51;;;;;;;;;0.00;0.00;;;;;22.34;47.18;98626.50;4919379;28;108999;-64
2022/07/13 11:38:20;;;;;;;;;1.00;1.00;;;;;22.35;47.12;98636.41;4915449;28;102107;-65
2022/07/13 11:40:48;;;;;;;;;0.00;0.00;;;;;22.35;46.84;98633.66;4917008;28;102246;-65
2022/07/13 11:43:15;;;;;;;;;0.00;0.00;;;;;22.35;46.79;98626.22;4916953;28;105205;-65